sensor_id;sensor_type;location;lat;lon;timestamp;P1;durP1;ratioP1;P2;durP2;ratioP2
20713;SDS011;10518;50.742;4.226;2023-01-29T00:01:36;7.63;;;3.93;;
20713;SDS011;10518;50.742;4.226;2023-01-29T00:04:02;7.37;;;3.87;;
20713;SDS011;10518;50.742;4.226;2023-01-29T00:06:27;10.63;;;4.00;;
20713;SDS011;10518;50.742;4.226;2023-01-29T00:08:53;5.07;;;3.10;;
20713;SDS011;10518;50.742;4.226;2023-01-29T00:11:18;10.13;;;3.77;;
20713;SDS011;10518;50.742;4.226;2023-01-29T00:13:44;4.43;;;4.03;;
20713;SDS011;10518;50.742;4.226;2023-01-29T00:16:10;4.67;;;3.73;;
20713;SDS011;10518;50.742;4.226;2023-01-29T00:18:37;6.17;;;3.33;;
20713;SDS011;10518;50.742;4.226;2023-01-29T00:21:07;7.53;;;4.70;;
20713;SDS011;10518;50.742;4.226;2023-01-29T00:23:34;4.83;;;3.37;;
20713;SDS011;10518;50.742;4.226;2023-01-29T00:25:59;9.77;;;4.33;;
20713;SDS011;10518;50.742;4.226;2023-01-29T00:28:25;5.10;;;3.23;;
20713;SDS011;10518;50.742;4.226;2023-01-29T00:30:50;3.63;;;3.07;;
20713;SDS011;10518;50.742;4.226;2023-01-29T00:33:16;3.43;;;2.70;;
20713;SDS011;10518;50.742;4.226;2023-01-29T00:35:41;10.70;;;2.93;;
20713;SDS011;10518;50.742;4.226;2023-01-29T00:38:07;5.07;;;3.07;;
20713;SDS011;10518;50.742;4.226;2023-01-29T00:40:35;6.97;;;3.53;;
20713;SDS011;10518;50.742;4.226;2023-01-29T00:43:21;4.97;;;2.97;;
20713;SDS011;10518;50.742;4.226;2023-01-29T00:46:06;7.17;;;2.67;;
20713;SDS011;10518;50.742;4.226;2023-01-29T00:48:32;6.77;;;3.80;;
20713;SDS011;10518;50.742;4.226;2023-01-29T00:50:58;9.53;;;3.87;;
20713;SDS011;10518;50.742;4.226;2023-01-29T00:53:24;7.93;;;2.87;;
20713;SDS011;10518;50.742;4.226;2023-01-29T00:55:50;4.50;;;4.13;;
20713;SDS011;10518;50.742;4.226;2023-01-29T00:58:16;8.50;;;4.23;;
20713;SDS011;10518;50.742;4.226;2023-01-29T01:00:46;3.47;;;2.87;;
20713;SDS011;10518;50.742;4.226;2023-01-29T01:03:13;2.60;;;2.40;;
20713;SDS011;10518;50.742;4.226;2023-01-29T01:05:39;4.00;;;3.37;;
20713;SDS011;10518;50.742;4.226;2023-01-29T01:08:06;3.00;;;2.57;;
20713;SDS011;10518;50.742;4.226;2023-01-29T01:10:59;6.53;;;2.93;;
20713;SDS011;10518;50.742;4.226;2023-01-29T01:13:27;3.10;;;2.80;;
20713;SDS011;10518;50.742;4.226;2023-01-29T01:15:55;6.43;;;3.07;;
20713;SDS011;10518;50.742;4.226;2023-01-29T01:18:20;5.07;;;3.63;;
20713;SDS011;10518;50.742;4.226;2023-01-29T01:20:46;6.87;;;3.43;;
20713;SDS011;10518;50.742;4.226;2023-01-29T01:23:15;6.07;;;3.77;;
20713;SDS011;10518;50.742;4.226;2023-01-29T01:25:44;4.57;;;2.53;;
20713;SDS011;10518;50.742;4.226;2023-01-29T01:28:10;4.47;;;2.80;;
20713;SDS011;10518;50.742;4.226;2023-01-29T01:30:36;4.20;;;3.47;;
20713;SDS011;10518;50.742;4.226;2023-01-29T01:33:01;7.17;;;4.43;;
20713;SDS011;10518;50.742;4.226;2023-01-29T01:35:27;5.40;;;3.90;;
20713;SDS011;10518;50.742;4.226;2023-01-29T01:37:53;3.37;;;2.33;;
20713;SDS011;10518;50.742;4.226;2023-01-29T01:40:20;5.23;;;2.53;;
20713;SDS011;10518;50.742;4.226;2023-01-29T01:42:47;6.43;;;3.50;;
20713;SDS011;10518;50.742;4.226;2023-01-29T01:45:25;7.57;;;3.37;;
20713;SDS011;10518;50.742;4.226;2023-01-29T01:48:00;5.33;;;3.13;;
20713;SDS011;10518;50.742;4.226;2023-01-29T01:53:25;11.43;;;3.20;;
20713;SDS011;10518;50.742;4.226;2023-01-29T01:56:04;2.63;;;2.43;;
20713;SDS011;10518;50.742;4.226;2023-01-29T01:58:38;2.60;;;1.60;;
20713;SDS011;10518;50.742;4.226;2023-01-29T02:01:07;5.17;;;2.93;;
20713;SDS011;10518;50.742;4.226;2023-01-29T02:03:39;6.97;;;2.47;;
20713;SDS011;10518;50.742;4.226;2023-01-29T02:06:29;2.70;;;2.50;;
20713;SDS011;10518;50.742;4.226;2023-01-29T02:09:22;9.57;;;3.23;;
20713;SDS011;10518;50.742;4.226;2023-01-29T02:11:55;4.83;;;2.77;;
20713;SDS011;10518;50.742;4.226;2023-01-29T02:14:21;3.13;;;2.27;;
20713;SDS011;10518;50.742;4.226;2023-01-29T02:16:46;5.90;;;3.23;;
20713;SDS011;10518;50.742;4.226;2023-01-29T02:19:16;3.33;;;1.93;;
20713;SDS011;10518;50.742;4.226;2023-01-29T02:22:06;3.20;;;2.83;;
20713;SDS011;10518;50.742;4.226;2023-01-29T02:25:08;7.30;;;2.97;;
20713;SDS011;10518;50.742;4.226;2023-01-29T02:27:40;6.67;;;3.33;;
20713;SDS011;10518;50.742;4.226;2023-01-29T02:47:17;7.60;;;2.93;;
20713;SDS011;10518;50.742;4.226;2023-01-29T02:50:05;1.47;;;1.37;;
20713;SDS011;10518;50.742;4.226;2023-01-29T02:52:50;6.83;;;3.17;;
20713;SDS011;10518;50.742;4.226;2023-01-29T02:57:55;2.90;;;2.20;;
20713;SDS011;10518;50.742;4.226;2023-01-29T03:00:26;8.63;;;2.83;;
20713;SDS011;10518;50.742;4.226;2023-01-29T03:05:30;4.87;;;2.70;;
20713;SDS011;10518;50.742;4.226;2023-01-29T03:08:03;6.97;;;3.60;;
20713;SDS011;10518;50.742;4.226;2023-01-29T03:10:36;3.43;;;2.60;;
20713;SDS011;10518;50.742;4.226;2023-01-29T03:13:05;4.63;;;2.60;;
20713;SDS011;10518;50.742;4.226;2023-01-29T03:15:45;3.03;;;2.30;;
20713;SDS011;10518;50.742;4.226;2023-01-29T03:18:22;4.10;;;2.67;;
20713;SDS011;10518;50.742;4.226;2023-01-29T03:20:53;2.57;;;2.37;;
20713;SDS011;10518;50.742;4.226;2023-01-29T03:23:23;8.47;;;3.73;;
20713;SDS011;10518;50.742;4.226;2023-01-29T03:26:11;2.80;;;1.80;;
20713;SDS011;10518;50.742;4.226;2023-01-29T03:28:57;6.37;;;3.27;;
20713;SDS011;10518;50.742;4.226;2023-01-29T03:31:43;3.53;;;2.57;;
20713;SDS011;10518;50.742;4.226;2023-01-29T03:34:29;2.90;;;2.17;;
20713;SDS011;10518;50.742;4.226;2023-01-29T03:37:06;5.23;;;1.80;;
20713;SDS011;10518;50.742;4.226;2023-01-29T03:39:39;7.83;;;2.80;;
20713;SDS011;10518;50.742;4.226;2023-01-29T03:49:31;6.30;;;3.13;;
20713;SDS011;10518;50.742;4.226;2023-01-29T03:55:32;3.43;;;3.13;;
20713;SDS011;10518;50.742;4.226;2023-01-29T03:57:57;10.33;;;4.53;;
20713;SDS011;10518;50.742;4.226;2023-01-29T04:00:44;3.70;;;2.63;;
20713;SDS011;10518;50.742;4.226;2023-01-29T04:03:20;1.97;;;1.63;;
20713;SDS011;10518;50.742;4.226;2023-01-29T04:05:51;2.97;;;2.53;;
20713;SDS011;10518;50.742;4.226;2023-01-29T04:08:29;2.53;;;2.33;;
20713;SDS011;10518;50.742;4.226;2023-01-29T04:10:58;2.67;;;2.37;;
20713;SDS011;10518;50.742;4.226;2023-01-29T04:13:29;4.10;;;2.57;;
20713;SDS011;10518;50.742;4.226;2023-01-29T04:15:57;10.67;;;3.00;;
20713;SDS011;10518;50.742;4.226;2023-01-29T04:18:25;4.03;;;3.27;;
20713;SDS011;10518;50.742;4.226;2023-01-29T04:20:50;3.10;;;2.80;;
20713;SDS011;10518;50.742;4.226;2023-01-29T04:23:24;6.17;;;2.13;;
20713;SDS011;10518;50.742;4.226;2023-01-29T04:29:56;9.93;;;3.30;;
20713;SDS011;10518;50.742;4.226;2023-01-29T04:34:55;2.77;;;2.33;;
20713;SDS011;10518;50.742;4.226;2023-01-29T04:46:01;5.00;;;2.97;;
20713;SDS011;10518;50.742;4.226;2023-01-29T04:48:56;3.50;;;2.37;;
20713;SDS011;10518;50.742;4.226;2023-01-29T04:54:17;5.33;;;2.57;;
20713;SDS011;10518;50.742;4.226;2023-01-29T04:56:50;2.67;;;2.43;;
20713;SDS011;10518;50.742;4.226;2023-01-29T04:59:42;4.93;;;4.17;;
20713;SDS011;10518;50.742;4.226;2023-01-29T05:02:11;3.93;;;2.50;;
20713;SDS011;10518;50.742;4.226;2023-01-29T05:04:38;3.20;;;2.30;;
20713;SDS011;10518;50.742;4.226;2023-01-29T05:07:07;8.37;;;3.30;;
20713;SDS011;10518;50.742;4.226;2023-01-29T05:09:37;10.43;;;3.00;;
20713;SDS011;10518;50.742;4.226;2023-01-29T05:12:04;5.50;;;2.53;;
20713;SDS011;10518;50.742;4.226;2023-01-29T05:14:33;2.80;;;1.90;;
20713;SDS011;10518;50.742;4.226;2023-01-29T05:17:01;3.87;;;3.10;;
20713;SDS011;10518;50.742;4.226;2023-01-29T05:19:32;12.73;;;3.87;;
20713;SDS011;10518;50.742;4.226;2023-01-29T05:21:58;5.80;;;3.37;;
20713;SDS011;10518;50.742;4.226;2023-01-29T05:24:24;4.63;;;2.33;;
20713;SDS011;10518;50.742;4.226;2023-01-29T05:26:51;5.10;;;3.93;;
20713;SDS011;10518;50.742;4.226;2023-01-29T05:29:37;10.13;;;2.53;;
20713;SDS011;10518;50.742;4.226;2023-01-29T05:32:06;6.13;;;2.63;;
20713;SDS011;10518;50.742;4.226;2023-01-29T05:34:32;3.40;;;2.93;;
20713;SDS011;10518;50.742;4.226;2023-01-29T05:36:58;3.73;;;3.03;;
20713;SDS011;10518;50.742;4.226;2023-01-29T05:39:24;6.07;;;3.97;;
20713;SDS011;10518;50.742;4.226;2023-01-29T05:41:49;6.83;;;2.83;;
20713;SDS011;10518;50.742;4.226;2023-01-29T05:44:15;5.30;;;3.93;;
20713;SDS011;10518;50.742;4.226;2023-01-29T05:46:40;5.20;;;3.97;;
20713;SDS011;10518;50.742;4.226;2023-01-29T05:49:07;6.23;;;2.90;;
20713;SDS011;10518;50.742;4.226;2023-01-29T05:51:33;9.93;;;5.30;;
20713;SDS011;10518;50.742;4.226;2023-01-29T05:53:58;6.50;;;3.00;;
20713;SDS011;10518;50.742;4.226;2023-01-29T05:56:24;6.60;;;3.33;;
20713;SDS011;10518;50.742;4.226;2023-01-29T05:58:49;3.87;;;3.20;;
20713;SDS011;10518;50.742;4.226;2023-01-29T06:01:16;5.70;;;3.83;;
20713;SDS011;10518;50.742;4.226;2023-01-29T06:03:44;13.87;;;4.57;;
20713;SDS011;10518;50.742;4.226;2023-01-29T06:06:10;6.47;;;2.53;;
20713;SDS011;10518;50.742;4.226;2023-01-29T06:08:36;8.60;;;3.20;;
20713;SDS011;10518;50.742;4.226;2023-01-29T06:11:02;7.37;;;2.97;;
20713;SDS011;10518;50.742;4.226;2023-01-29T06:13:30;5.43;;;3.53;;
20713;SDS011;10518;50.742;4.226;2023-01-29T06:15:56;8.83;;;5.23;;
20713;SDS011;10518;50.742;4.226;2023-01-29T06:18:21;6.47;;;3.27;;
20713;SDS011;10518;50.742;4.226;2023-01-29T06:20:47;8.87;;;5.87;;
20713;SDS011;10518;50.742;4.226;2023-01-29T06:23:12;6.80;;;4.07;;
20713;SDS011;10518;50.742;4.226;2023-01-29T06:25:38;3.77;;;3.27;;
20713;SDS011;10518;50.742;4.226;2023-01-29T06:28:04;10.30;;;4.87;;
20713;SDS011;10518;50.742;4.226;2023-01-29T06:30:29;6.90;;;4.23;;
20713;SDS011;10518;50.742;4.226;2023-01-29T06:32:56;14.70;;;5.87;;
20713;SDS011;10518;50.742;4.226;2023-01-29T06:35:22;10.30;;;4.20;;
20713;SDS011;10518;50.742;4.226;2023-01-29T06:37:49;6.10;;;2.87;;
20713;SDS011;10518;50.742;4.226;2023-01-29T06:40:14;5.47;;;3.23;;
20713;SDS011;10518;50.742;4.226;2023-01-29T06:42:40;5.37;;;3.30;;
20713;SDS011;10518;50.742;4.226;2023-01-29T06:45:05;4.43;;;4.07;;
20713;SDS011;10518;50.742;4.226;2023-01-29T06:47:31;6.93;;;4.67;;
20713;SDS011;10518;50.742;4.226;2023-01-29T06:49:57;6.83;;;4.10;;
20713;SDS011;10518;50.742;4.226;2023-01-29T06:52:23;9.50;;;4.67;;
20713;SDS011;10518;50.742;4.226;2023-01-29T06:54:52;9.60;;;5.03;;
20713;SDS011;10518;50.742;4.226;2023-01-29T06:57:18;7.00;;;4.60;;
20713;SDS011;10518;50.742;4.226;2023-01-29T06:59:44;5.37;;;3.70;;
20713;SDS011;10518;50.742;4.226;2023-01-29T07:02:11;3.97;;;3.10;;
20713;SDS011;10518;50.742;4.226;2023-01-29T07:04:37;9.20;;;3.47;;
20713;SDS011;10518;50.742;4.226;2023-01-29T07:07:03;7.37;;;4.37;;
20713;SDS011;10518;50.742;4.226;2023-01-29T07:09:29;13.90;;;3.70;;
20713;SDS011;10518;50.742;4.226;2023-01-29T07:11:55;4.47;;;3.07;;
20713;SDS011;10518;50.742;4.226;2023-01-29T07:14:20;5.33;;;3.30;;
20713;SDS011;10518;50.742;4.226;2023-01-29T07:16:46;11.27;;;4.70;;
20713;SDS011;10518;50.742;4.226;2023-01-29T07:19:11;6.40;;;3.87;;
20713;SDS011;10518;50.742;4.226;2023-01-29T07:21:37;3.23;;;2.93;;
20713;SDS011;10518;50.742;4.226;2023-01-29T07:24:02;10.90;;;4.87;;
20713;SDS011;10518;50.742;4.226;2023-01-29T07:26:28;13.27;;;3.93;;
20713;SDS011;10518;50.742;4.226;2023-01-29T07:28:54;13.30;;;3.90;;
20713;SDS011;10518;50.742;4.226;2023-01-29T07:31:19;6.90;;;4.63;;
20713;SDS011;10518;50.742;4.226;2023-01-29T07:33:46;8.53;;;4.50;;
20713;SDS011;10518;50.742;4.226;2023-01-29T07:36:12;9.13;;;4.87;;
20713;SDS011;10518;50.742;4.226;2023-01-29T07:38:38;4.03;;;3.47;;
20713;SDS011;10518;50.742;4.226;2023-01-29T07:41:04;8.80;;;4.23;;
20713;SDS011;10518;50.742;4.226;2023-01-29T07:43:29;12.50;;;4.50;;
20713;SDS011;10518;50.742;4.226;2023-01-29T07:45:55;4.97;;;3.87;;
20713;SDS011;10518;50.742;4.226;2023-01-29T07:48:20;11.23;;;4.00;;
20713;SDS011;10518;50.742;4.226;2023-01-29T07:50:53;14.97;;;5.10;;
20713;SDS011;10518;50.742;4.226;2023-01-29T07:53:19;7.77;;;4.77;;
20713;SDS011;10518;50.742;4.226;2023-01-29T07:55:45;7.43;;;5.13;;
20713;SDS011;10518;50.742;4.226;2023-01-29T07:58:11;10.13;;;6.23;;
20713;SDS011;10518;50.742;4.226;2023-01-29T08:00:36;11.67;;;4.87;;
20713;SDS011;10518;50.742;4.226;2023-01-29T08:03:06;6.63;;;4.07;;
20713;SDS011;10518;50.742;4.226;2023-01-29T08:05:34;8.47;;;5.97;;
20713;SDS011;10518;50.742;4.226;2023-01-29T08:08:00;7.90;;;4.63;;
20713;SDS011;10518;50.742;4.226;2023-01-29T08:10:26;10.90;;;5.47;;
20713;SDS011;10518;50.742;4.226;2023-01-29T08:12:53;10.83;;;6.17;;
20713;SDS011;10518;50.742;4.226;2023-01-29T08:15:22;13.83;;;5.77;;
20713;SDS011;10518;50.742;4.226;2023-01-29T08:17:48;9.23;;;5.30;;
20713;SDS011;10518;50.742;4.226;2023-01-29T08:20:14;8.77;;;5.13;;
20713;SDS011;10518;50.742;4.226;2023-01-29T08:22:40;10.40;;;4.70;;
20713;SDS011;10518;50.742;4.226;2023-01-29T08:25:06;9.07;;;4.83;;
20713;SDS011;10518;50.742;4.226;2023-01-29T08:27:31;8.00;;;4.80;;
20713;SDS011;10518;50.742;4.226;2023-01-29T08:29:57;6.17;;;4.67;;
20713;SDS011;10518;50.742;4.226;2023-01-29T08:32:23;10.43;;;5.27;;
20713;SDS011;10518;50.742;4.226;2023-01-29T08:34:48;14.07;;;5.20;;
20713;SDS011;10518;50.742;4.226;2023-01-29T08:37:14;5.80;;;4.60;;
20713;SDS011;10518;50.742;4.226;2023-01-29T08:39:39;7.77;;;3.70;;
20713;SDS011;10518;50.742;4.226;2023-01-29T08:42:05;6.13;;;3.80;;
20713;SDS011;10518;50.742;4.226;2023-01-29T08:44:30;16.33;;;5.47;;
20713;SDS011;10518;50.742;4.226;2023-01-29T08:46:56;5.70;;;4.47;;
20713;SDS011;10518;50.742;4.226;2023-01-29T08:49:21;7.70;;;4.43;;
20713;SDS011;10518;50.742;4.226;2023-01-29T08:51:47;14.17;;;6.87;;
20713;SDS011;10518;50.742;4.226;2023-01-29T08:54:15;7.93;;;5.47;;
20713;SDS011;10518;50.742;4.226;2023-01-29T08:56:41;7.43;;;6.00;;
20713;SDS011;10518;50.742;4.226;2023-01-29T08:59:07;12.50;;;5.27;;
20713;SDS011;10518;50.742;4.226;2023-01-29T09:01:34;6.43;;;4.87;;
20713;SDS011;10518;50.742;4.226;2023-01-29T09:03:59;5.73;;;3.87;;
20713;SDS011;10518;50.742;4.226;2023-01-29T09:06:25;8.03;;;5.13;;
20713;SDS011;10518;50.742;4.226;2023-01-29T09:08:50;7.10;;;4.17;;
20713;SDS011;10518;50.742;4.226;2023-01-29T09:11:16;7.37;;;5.47;;
20713;SDS011;10518;50.742;4.226;2023-01-29T09:13:41;19.97;;;5.57;;
20713;SDS011;10518;50.742;4.226;2023-01-29T09:16:07;15.37;;;5.13;;
20713;SDS011;10518;50.742;4.226;2023-01-29T09:18:34;12.07;;;5.40;;
20713;SDS011;10518;50.742;4.226;2023-01-29T09:20:59;21.00;;;6.37;;
20713;SDS011;10518;50.742;4.226;2023-01-29T09:23:26;9.50;;;6.17;;
20713;SDS011;10518;50.742;4.226;2023-01-29T09:25:53;11.77;;;6.33;;
20713;SDS011;10518;50.742;4.226;2023-01-29T09:28:20;12.87;;;5.57;;
20713;SDS011;10518;50.742;4.226;2023-01-29T09:30:45;8.50;;;4.47;;
20713;SDS011;10518;50.742;4.226;2023-01-29T09:33:11;10.97;;;4.03;;
20713;SDS011;10518;50.742;4.226;2023-01-29T09:35:39;10.27;;;5.50;;
20713;SDS011;10518;50.742;4.226;2023-01-29T09:38:05;13.17;;;5.50;;
20713;SDS011;10518;50.742;4.226;2023-01-29T09:43:26;7.53;;;4.97;;
20713;SDS011;10518;50.742;4.226;2023-01-29T09:46:18;9.23;;;5.13;;
20713;SDS011;10518;50.742;4.226;2023-01-29T09:52:06;12.73;;;5.27;;
20713;SDS011;10518;50.742;4.226;2023-01-29T09:57:29;7.40;;;5.07;;
20713;SDS011;10518;50.742;4.226;2023-01-29T10:00:03;14.93;;;5.27;;
20713;SDS011;10518;50.742;4.226;2023-01-29T10:10:46;4.97;;;4.37;;
20713;SDS011;10518;50.742;4.226;2023-01-29T10:13:18;11.50;;;5.13;;
20713;SDS011;10518;50.742;4.226;2023-01-29T10:15:48;14.93;;;6.37;;
20713;SDS011;10518;50.742;4.226;2023-01-29T10:18:30;13.57;;;5.77;;
20713;SDS011;10518;50.742;4.226;2023-01-29T10:23:49;8.47;;;3.63;;
20713;SDS011;10518;50.742;4.226;2023-01-29T10:26:36;9.20;;;5.30;;
20713;SDS011;10518;50.742;4.226;2023-01-29T10:29:04;9.73;;;4.73;;
20713;SDS011;10518;50.742;4.226;2023-01-29T10:31:32;7.70;;;4.90;;
20713;SDS011;10518;50.742;4.226;2023-01-29T10:34:12;9.03;;;5.90;;
20713;SDS011;10518;50.742;4.226;2023-01-29T10:36:46;14.50;;;7.07;;
20713;SDS011;10518;50.742;4.226;2023-01-29T10:39:16;11.53;;;6.53;;
20713;SDS011;10518;50.742;4.226;2023-01-29T10:42:47;10.70;;;4.50;;
20713;SDS011;10518;50.742;4.226;2023-01-29T10:55:56;12.23;;;4.10;;
20713;SDS011;10518;50.742;4.226;2023-01-29T10:58:42;6.73;;;4.80;;
20713;SDS011;10518;50.742;4.226;2023-01-29T11:01:13;7.47;;;4.30;;
20713;SDS011;10518;50.742;4.226;2023-01-29T11:03:39;10.63;;;5.37;;
20713;SDS011;10518;50.742;4.226;2023-01-29T11:08:37;9.23;;;4.40;;
20713;SDS011;10518;50.742;4.226;2023-01-29T11:11:16;9.17;;;5.23;;
20713;SDS011;10518;50.742;4.226;2023-01-29T11:13:47;15.30;;;5.00;;
20713;SDS011;10518;50.742;4.226;2023-01-29T11:16:22;4.83;;;3.77;;
20713;SDS011;10518;50.742;4.226;2023-01-29T11:18:49;7.83;;;5.23;;
20713;SDS011;10518;50.742;4.226;2023-01-29T11:21:23;8.77;;;3.87;;
20713;SDS011;10518;50.742;4.226;2023-01-29T11:24:03;10.87;;;4.57;;
20713;SDS011;10518;50.742;4.226;2023-01-29T11:26:32;7.10;;;4.07;;
20713;SDS011;10518;50.742;4.226;2023-01-29T11:29:01;11.33;;;4.57;;
20713;SDS011;10518;50.742;4.226;2023-01-29T11:31:36;9.50;;;3.97;;
20713;SDS011;10518;50.742;4.226;2023-01-29T11:34:04;9.53;;;4.07;;
20713;SDS011;10518;50.742;4.226;2023-01-29T11:36:40;8.57;;;3.97;;
20713;SDS011;10518;50.742;4.226;2023-01-29T11:39:19;6.23;;;4.23;;
20713;SDS011;10518;50.742;4.226;2023-01-29T11:41:55;3.03;;;2.73;;
20713;SDS011;10518;50.742;4.226;2023-01-29T11:46:53;9.80;;;4.17;;
20713;SDS011;10518;50.742;4.226;2023-01-29T11:49:21;6.43;;;3.70;;
20713;SDS011;10518;50.742;4.226;2023-01-29T11:51:55;9.50;;;4.10;;
20713;SDS011;10518;50.742;4.226;2023-01-29T11:54:24;5.50;;;3.27;;
20713;SDS011;10518;50.742;4.226;2023-01-29T11:56:57;8.37;;;4.67;;
20713;SDS011;10518;50.742;4.226;2023-01-29T12:01:55;10.33;;;4.77;;
20713;SDS011;10518;50.742;4.226;2023-01-29T12:04:52;11.10;;;4.90;;
20713;SDS011;10518;50.742;4.226;2023-01-29T12:07:20;7.87;;;4.70;;
20713;SDS011;10518;50.742;4.226;2023-01-29T12:09:48;9.30;;;4.63;;
20713;SDS011;10518;50.742;4.226;2023-01-29T12:12:17;6.33;;;3.13;;
20713;SDS011;10518;50.742;4.226;2023-01-29T12:15:03;10.00;;;4.00;;
20713;SDS011;10518;50.742;4.226;2023-01-29T12:17:49;6.13;;;4.30;;
20713;SDS011;10518;50.742;4.226;2023-01-29T12:20:22;7.40;;;4.13;;
20713;SDS011;10518;50.742;4.226;2023-01-29T12:28:13;6.40;;;3.50;;
20713;SDS011;10518;50.742;4.226;2023-01-29T12:31:15;7.57;;;4.83;;
20713;SDS011;10518;50.742;4.226;2023-01-29T12:39:10;8.13;;;3.37;;
20713;SDS011;10518;50.742;4.226;2023-01-29T12:41:42;7.53;;;3.57;;
20713;SDS011;10518;50.742;4.226;2023-01-29T12:44:19;6.40;;;3.70;;
20713;SDS011;10518;50.742;4.226;2023-01-29T12:47:18;10.17;;;2.63;;
20713;SDS011;10518;50.742;4.226;2023-01-29T12:49:51;3.60;;;2.77;;
20713;SDS011;10518;50.742;4.226;2023-01-29T12:52:22;7.40;;;3.90;;
20713;SDS011;10518;50.742;4.226;2023-01-29T12:55:18;6.33;;;3.23;;
20713;SDS011;10518;50.742;4.226;2023-01-29T13:00:22;8.07;;;3.83;;
20713;SDS011;10518;50.742;4.226;2023-01-29T13:02:55;8.97;;;3.93;;
20713;SDS011;10518;50.742;4.226;2023-01-29T13:05:56;6.30;;;2.97;;
20713;SDS011;10518;50.742;4.226;2023-01-29T13:08:29;5.13;;;2.83;;
20713;SDS011;10518;50.742;4.226;2023-01-29T13:11:01;8.13;;;4.17;;
20713;SDS011;10518;50.742;4.226;2023-01-29T13:16:16;6.90;;;3.70;;
20713;SDS011;10518;50.742;4.226;2023-01-29T13:19:05;10.50;;;4.87;;
20713;SDS011;10518;50.742;4.226;2023-01-29T13:21:48;5.83;;;4.17;;
20713;SDS011;10518;50.742;4.226;2023-01-29T13:24:15;5.60;;;3.20;;
20713;SDS011;10518;50.742;4.226;2023-01-29T13:26:43;6.77;;;4.20;;
20713;SDS011;10518;50.742;4.226;2023-01-29T13:29:43;9.10;;;4.87;;
20713;SDS011;10518;50.742;4.226;2023-01-29T13:32:02;5.87;;;2.90;;
20713;SDS011;10518;50.742;4.226;2023-01-29T13:34:32;8.53;;;4.57;;
20713;SDS011;10518;50.742;4.226;2023-01-29T13:37:01;9.00;;;4.50;;
20713;SDS011;10518;50.742;4.226;2023-01-29T13:39:46;9.13;;;3.40;;
20713;SDS011;10518;50.742;4.226;2023-01-29T13:42:15;7.93;;;4.10;;
20713;SDS011;10518;50.742;4.226;2023-01-29T13:44:50;5.50;;;3.07;;
20713;SDS011;10518;50.742;4.226;2023-01-29T13:47:23;5.07;;;3.23;;
20713;SDS011;10518;50.742;4.226;2023-01-29T13:49:53;7.70;;;3.03;;
20713;SDS011;10518;50.742;4.226;2023-01-29T13:55:38;9.67;;;3.90;;
20713;SDS011;10518;50.742;4.226;2023-01-29T14:00:04;6.50;;;4.03;;
20713;SDS011;10518;50.742;4.226;2023-01-29T14:02:30;6.33;;;3.47;;
20713;SDS011;10518;50.742;4.226;2023-01-29T14:07:56;9.97;;;3.83;;
20713;SDS011;10518;50.742;4.226;2023-01-29T14:10:29;7.67;;;4.70;;
20713;SDS011;10518;50.742;4.226;2023-01-29T14:15:28;11.33;;;4.47;;
20713;SDS011;10518;50.742;4.226;2023-01-29T14:18:17;9.60;;;4.60;;
20713;SDS011;10518;50.742;4.226;2023-01-29T14:26:00;6.73;;;3.30;;
20713;SDS011;10518;50.742;4.226;2023-01-29T14:28:29;9.17;;;4.20;;
20713;SDS011;10518;50.742;4.226;2023-01-29T14:30:57;8.57;;;4.30;;
20713;SDS011;10518;50.742;4.226;2023-01-29T14:33:36;10.83;;;5.50;;
20713;SDS011;10518;50.742;4.226;2023-01-29T14:36:11;12.50;;;3.97;;
20713;SDS011;10518;50.742;4.226;2023-01-29T14:38:47;11.23;;;4.60;;
20713;SDS011;10518;50.742;4.226;2023-01-29T14:41:19;8.33;;;4.30;;
20713;SDS011;10518;50.742;4.226;2023-01-29T14:46:57;7.20;;;4.00;;
20713;SDS011;10518;50.742;4.226;2023-01-29T14:52:25;8.53;;;5.00;;
20713;SDS011;10518;50.742;4.226;2023-01-29T14:55:05;14.27;;;5.87;;
20713;SDS011;10518;50.742;4.226;2023-01-29T14:57:35;12.33;;;5.17;;
20713;SDS011;10518;50.742;4.226;2023-01-29T15:00:03;18.40;;;5.83;;
20713;SDS011;10518;50.742;4.226;2023-01-29T15:02:33;8.17;;;3.70;;
20713;SDS011;10518;50.742;4.226;2023-01-29T15:05:06;10.23;;;4.60;;
20713;SDS011;10518;50.742;4.226;2023-01-29T15:07:38;12.30;;;4.17;;
20713;SDS011;10518;50.742;4.226;2023-01-29T15:13:16;9.20;;;4.67;;
20713;SDS011;10518;50.742;4.226;2023-01-29T15:16:05;16.60;;;4.40;;
20713;SDS011;10518;50.742;4.226;2023-01-29T15:18:39;12.40;;;5.27;;
20713;SDS011;10518;50.742;4.226;2023-01-29T15:21:16;8.60;;;5.67;;
20713;SDS011;10518;50.742;4.226;2023-01-29T15:23:43;7.27;;;4.23;;
20713;SDS011;10518;50.742;4.226;2023-01-29T15:26:10;7.57;;;4.57;;
20713;SDS011;10518;50.742;4.226;2023-01-29T15:28:41;13.53;;;4.53;;
20713;SDS011;10518;50.742;4.226;2023-01-29T15:31:14;17.67;;;6.73;;
20713;SDS011;10518;50.742;4.226;2023-01-29T15:33:43;15.53;;;5.67;;
20713;SDS011;10518;50.742;4.226;2023-01-29T15:36:21;13.00;;;5.40;;
20713;SDS011;10518;50.742;4.226;2023-01-29T15:39:05;13.10;;;5.43;;
20713;SDS011;10518;50.742;4.226;2023-01-29T15:41:34;12.50;;;4.63;;
20713;SDS011;10518;50.742;4.226;2023-01-29T15:44:00;10.07;;;3.83;;
20713;SDS011;10518;50.742;4.226;2023-01-29T15:46:26;16.73;;;6.17;;
20713;SDS011;10518;50.742;4.226;2023-01-29T15:49:04;8.07;;;4.30;;
20713;SDS011;10518;50.742;4.226;2023-01-29T15:51:34;9.37;;;4.97;;
20713;SDS011;10518;50.742;4.226;2023-01-29T15:54:00;11.53;;;4.57;;
20713;SDS011;10518;50.742;4.226;2023-01-29T15:56:32;5.30;;;3.50;;
20713;SDS011;10518;50.742;4.226;2023-01-29T15:59:01;8.83;;;4.70;;
20713;SDS011;10518;50.742;4.226;2023-01-29T16:01:28;11.23;;;4.47;;
20713;SDS011;10518;50.742;4.226;2023-01-29T16:03:55;9.73;;;4.33;;
20713;SDS011;10518;50.742;4.226;2023-01-29T16:06:33;7.87;;;3.60;;
20713;SDS011;10518;50.742;4.226;2023-01-29T16:09:02;14.07;;;5.20;;
20713;SDS011;10518;50.742;4.226;2023-01-29T16:11:29;9.50;;;5.13;;
20713;SDS011;10518;50.742;4.226;2023-01-29T16:13:55;5.53;;;4.03;;
20713;SDS011;10518;50.742;4.226;2023-01-29T16:16:23;6.53;;;3.30;;
20713;SDS011;10518;50.742;4.226;2023-01-29T16:18:50;8.90;;;4.20;;
20713;SDS011;10518;50.742;4.226;2023-01-29T16:21:20;7.10;;;3.50;;
20713;SDS011;10518;50.742;4.226;2023-01-29T16:23:54;10.07;;;4.97;;
20713;SDS011;10518;50.742;4.226;2023-01-29T16:26:27;11.07;;;4.57;;
20713;SDS011;10518;50.742;4.226;2023-01-29T16:29:02;9.20;;;4.97;;
20713;SDS011;10518;50.742;4.226;2023-01-29T16:31:29;9.93;;;6.07;;
20713;SDS011;10518;50.742;4.226;2023-01-29T16:33:56;9.63;;;5.83;;
20713;SDS011;10518;50.742;4.226;2023-01-29T16:36:24;8.20;;;4.37;;
20713;SDS011;10518;50.742;4.226;2023-01-29T16:38:53;8.40;;;4.40;;
20713;SDS011;10518;50.742;4.226;2023-01-29T16:48:59;5.30;;;3.53;;
20713;SDS011;10518;50.742;4.226;2023-01-29T16:51:30;8.20;;;4.70;;
20713;SDS011;10518;50.742;4.226;2023-01-29T16:54:11;11.77;;;3.87;;
20713;SDS011;10518;50.742;4.226;2023-01-29T16:56:42;9.93;;;3.80;;
20713;SDS011;10518;50.742;4.226;2023-01-29T16:59:24;11.97;;;5.00;;
20713;SDS011;10518;50.742;4.226;2023-01-29T17:01:59;12.60;;;4.03;;
20713;SDS011;10518;50.742;4.226;2023-01-29T17:04:25;15.83;;;6.70;;
20713;SDS011;10518;50.742;4.226;2023-01-29T17:06:55;13.23;;;5.27;;
20713;SDS011;10518;50.742;4.226;2023-01-29T17:09:25;9.50;;;4.47;;
20713;SDS011;10518;50.742;4.226;2023-01-29T17:12:03;12.50;;;4.73;;
20713;SDS011;10518;50.742;4.226;2023-01-29T17:14:32;8.57;;;5.77;;
20713;SDS011;10518;50.742;4.226;2023-01-29T17:17:02;14.07;;;5.83;;
20713;SDS011;10518;50.742;4.226;2023-01-29T17:19:30;12.63;;;4.33;;
20713;SDS011;10518;50.742;4.226;2023-01-29T17:21:56;7.77;;;4.70;;
20713;SDS011;10518;50.742;4.226;2023-01-29T17:24:23;11.57;;;5.70;;
20713;SDS011;10518;50.742;4.226;2023-01-29T17:26:49;10.87;;;4.30;;